Map

Track Data

SID SEASON NUMBER BASIN SUBBASIN NAME ISO_TIME NATURE LAT LON WMO_WIND WMO_PRES WMO_AGENCY TRACK_TYPE DIST2LAND LANDFALL IFLAG USA_AGENCY USA_ATCF_ID USA_LAT USA_LON USA_RECORD USA_STATUS USA_WIND USA_PRES USA_SSHS USA_R34_NE USA_R34_SE USA_R34_SW USA_R34_NW USA_R50_NE USA_R50_SE USA_R50_SW USA_R50_NW USA_R64_NE USA_R64_SE USA_R64_SW USA_R64_NW USA_POCI USA_ROCI USA_RMW USA_EYE TOKYO_LAT TOKYO_LON TOKYO_GRADE TOKYO_WIND TOKYO_PRES TOKYO_R50_DIR TOKYO_R50_LONG TOKYO_R50_SHORT TOKYO_R30_DIR TOKYO_R30_LONG TOKYO_R30_SHORT TOKYO_LAND CMA_LAT CMA_LON CMA_CAT CMA_WIND CMA_PRES HKO_LAT HKO_LON HKO_CAT HKO_WIND HKO_PRES NEWDELHI_LAT NEWDELHI_LON NEWDELHI_GRADE NEWDELHI_WIND NEWDELHI_PRES NEWDELHI_CI NEWDELHI_DP NEWDELHI_POCI REUNION_LAT REUNION_LON REUNION_TYPE REUNION_WIND REUNION_PRES REUNION_TNUM REUNION_CI REUNION_RMW REUNION_R34_NE REUNION_R34_SE REUNION_R34_SW REUNION_R34_NW REUNION_R50_NE REUNION_R50_SE REUNION_R50_SW REUNION_R50_NW REUNION_R64_NE REUNION_R64_SE REUNION_R64_SW REUNION_R64_NW BOM_LAT BOM_LON BOM_TYPE BOM_WIND BOM_PRES BOM_TNUM BOM_CI BOM_RMW BOM_R34_NE BOM_R34_SE BOM_R34_SW BOM_R34_NW BOM_R50_NE BOM_R50_SE BOM_R50_SW BOM_R50_NW BOM_R64_NE BOM_R64_SE BOM_R64_SW BOM_R64_NW BOM_ROCI BOM_POCI BOM_EYE BOM_POS_METHOD BOM_PRES_METHOD NADI_LAT NADI_LON NADI_CAT NADI_WIND NADI_PRES WELLINGTON_LAT WELLINGTON_LON WELLINGTON_WIND WELLINGTON_PRES DS824_LAT DS824_LON DS824_STAGE DS824_WIND DS824_PRES TD9636_LAT TD9636_LON TD9636_STAGE TD9636_WIND TD9636_PRES TD9635_LAT TD9635_LON TD9635_WIND TD9635_PRES TD9635_ROCI NEUMANN_LAT NEUMANN_LON NEUMANN_CLASS NEUMANN_WIND NEUMANN_PRES MLC_LAT MLC_LON MLC_CLASS MLC_WIND MLC_PRES USA_GUST BOM_GUST BOM_GUST_PER REUNION_GUST REUNION_GUST_PER USA_SEAHGT USA_SEARAD_NE USA_SEARAD_SE USA_SEARAD_SW USA_SEARAD_NW STORM_SPEED STORM_DIR
1884306S07095 1885 43 SI WA NOT_NAMED 1884-10-31 18:00:00 NR -6.50000 94.6000 main 719 719 __________O___ -1 -6.50000 94.6000 7 6 240
1884306S07095 1885 43 SI WA NOT_NAMED 1884-10-31 21:00:00 NR -6.65950 94.3205 main 757 757 __________P___ -1 -6.65950 94.3205 7 6 240
1884306S07095 1885 43 SI WA NOT_NAMED 1884-11-01 00:00:00 NR -6.81513 94.0427 main 788 788 __________P___ -1 -6.81513 94.0427 7 6 241
1884306S07095 1885 43 SI WA NOT_NAMED 1884-11-01 03:00:00 NR -6.96320 93.7685 main 820 820 __________P___ -1 -6.96320 93.7685 7 6 242
1884306S07095 1885 43 SI WA NOT_NAMED 1884-11-01 06:00:00 NR -7.10000 93.5000 main 851 851 __________O___ -1 -7.10000 93.5000 7 6 244
1884306S07095 1885 43 SI WA NOT_NAMED 1884-11-01 09:00:00 NR -7.22402 93.2387 main 882 882 __________P___ -1 -7.22402 93.2387 7 6 245
1884306S07095 1885 43 SI WA NOT_NAMED 1884-11-01 12:00:00 NR -7.34244 92.9849 main 906 906 __________P___ -1 -7.34244 92.9849 7 6 244
1884306S07095 1885 43 SI WA NOT_NAMED 1884-11-01 15:00:00 NR -7.46465 92.7387 main 946 946 __________P___ -1 -7.46465 92.7387 7 5 242
1884306S07095 1885 43 SI WA NOT_NAMED 1884-11-01 18:00:00 NR -7.60000 92.5000 main 969 969 __________O___ -1 -7.60000 92.5000 7 5 237
1884306S07095 1885 43 SI WA NOT_NAMED 1884-11-01 21:00:00 NR -7.75234 92.2920 main 1001 1001 __________P___ -1 -7.75234 92.2920 7 5 232
1884306S07095 1885 43 SI WA NOT_NAMED 1884-11-02 00:00:00 NR -7.91975 92.0872 main 1025 1025 __________P___ -1 -7.91975 92.0872 7 6 230
1884306S07095 1885 43 SI WA NOT_NAMED 1884-11-02 03:00:00 NR -8.10230 91.8638 main 1056 1056 __________P___ -1 -8.10230 91.8638 7 6 232
1884306S07095 1885 43 SI WA NOT_NAMED 1884-11-02 06:00:00 NR -8.30000 91.6000 main 1096 1096 __________O___ -1 -8.30000 91.6000 7 7 237
1884306S07095 1885 43 SI WA NOT_NAMED 1884-11-02 09:00:00 NR -8.50683 91.2318 main 1143 1143 __________P___ -1 -8.50683 91.2318 7 9 241
1884306S07095 1885 43 SI WA NOT_NAMED 1884-11-02 12:00:00 NR -8.72791 90.8278 main 1191 1191 __________P___ -1 -8.72791 90.8278 7 9 240
1884306S07095 1885 43 SI WA NOT_NAMED 1884-11-02 15:00:00 NR -8.95998 90.4349 main 1247 1247 __________P___ -1 -8.95998 90.4349 7 9 237
1884306S07095 1885 43 SI WA NOT_NAMED 1884-11-02 18:00:00 NR -9.20000 90.1000 main 1286 1286 __________O___ -1 -9.20000 90.1000 7 7 228
1884306S07095 1885 43 SI MM NOT_NAMED 1884-11-02 21:00:00 NR -9.44251 89.9012 main 1317 1317 __________P___ -1 -9.44251 89.9012 7 6 214
1884306S07095 1885 43 SI MM NOT_NAMED 1884-11-03 00:00:00 NR -9.69211 89.7620 main 1348 1348 __________P___ -1 -9.69211 89.7620 7 6 207
1884306S07095 1885 43 SI MM NOT_NAMED 1884-11-03 03:00:00 NR -9.94567 89.6419 main 1379 1379 __________P___ -1 -9.94567 89.6419 7 6 207
1884306S07095 1885 43 SI MM NOT_NAMED 1884-11-03 06:00:00 NR -10.2000 89.5000 main 1409 1409 __________O___ -1 -10.2000 89.5000 7 6 216
1884306S07095 1885 43 SI MM NOT_NAMED 1884-11-03 09:00:00 NR -10.4541 89.2707 main 1448 1448 __________P___ -1 -10.4541 89.2707 7 7 223
1884306S07095 1885 43 SI MM NOT_NAMED 1884-11-03 12:00:00 NR -10.7076 89.0151 main 1488 1488 __________P___ -1 -10.7076 89.0151 7 7 225
1884306S07095 1885 43 SI MM NOT_NAMED 1884-11-03 15:00:00 NR -10.9573 88.7519 main 1526 1526 __________P___ -1 -10.9573 88.7519 7 7 226
1884306S07095 1885 43 SI MM NOT_NAMED 1884-11-03 18:00:00 NR -11.2000 88.5000 main 1566 1566 __________O___ -1 -11.2000 88.5000 7 7 225
1884306S07095 1885 43 SI MM NOT_NAMED 1884-11-03 21:00:00 NR -11.4321 88.2733 main 1597 1597 __________P___ -1 -11.4321 88.2733 7 6 223
1884306S07095 1885 43 SI MM NOT_NAMED 1884-11-04 00:00:00 NR -11.6575 88.0624 main 1636 1636 __________P___ -1 -11.6575 88.0624 7 6 222
1884306S07095 1885 43 SI MM NOT_NAMED 1884-11-04 03:00:00 NR -11.8790 87.8702 main 1667 1667 __________P___ -1 -11.8790 87.8702 7 6 219
1884306S07095 1885 43 SI MM NOT_NAMED 1884-11-04 06:00:00 NR -12.1000 87.7000 main 1698 1698 __________O___ -1 -12.1000 87.7000 7 5 214
1884306S07095 1885 43 SI MM NOT_NAMED 1884-11-04 09:00:00 NR -12.3168 87.5613 main 1721 1721 __________P___ -1 -12.3168 87.5613 7 5 210
1884306S07095 1885 43 SI MM NOT_NAMED 1884-11-04 12:00:00 NR -12.5349 87.4422 main 1752 1752 __________P___ -1 -12.5349 87.4422 7 5 207
1884306S07095 1885 43 SI MM NOT_NAMED 1884-11-04 15:00:00 NR -12.7605 87.3269 main 1783 1783 __________P___ -1 -12.7605 87.3269 7 5 207
1884306S07095 1885 43 SI MM NOT_NAMED 1884-11-04 18:00:00 NR -13.0000 87.2000 main 1806 1806 __________O___ -1 -13.0000 87.2000 7 6 210
1884306S07095 1885 43 SI MM NOT_NAMED 1884-11-04 21:00:00 NR -13.2810 87.0193 main 1845 1845 __________P___ -1 -13.2810 87.0193 7 7 212
1884306S07095 1885 43 SI MM NOT_NAMED 1884-11-05 00:00:00 NR -13.5726 86.8279 main 1884 1884 __________P___ -1 -13.5726 86.8279 7 7 212
1884306S07095 1885 43 SI MM NOT_NAMED 1884-11-05 03:00:00 NR -13.8529 86.6474 main 1923 1923 __________P___ -1 -13.8529 86.6474 7 6 211
1884306S07095 1885 43 SI MM NOT_NAMED 1884-11-05 06:00:00 NR -14.1000 86.5000 main 1946 1946 __________O___ -1 -14.1000 86.5000 7 5 207
1884306S07095 1885 43 SI MM NOT_NAMED 1884-11-05 09:00:00 NR -14.2858 86.4179 main 1970 1970 __________P___ -1 -14.2858 86.4179 7 4 201
1884306S07095 1885 43 SI MM NOT_NAMED 1884-11-05 12:00:00 NR -14.4374 86.3697 main 1978 1978 __________P___ -1 -14.4374 86.3697 7 3 196
1884306S07095 1885 43 SI MM NOT_NAMED 1884-11-05 15:00:00 NR -14.5702 86.3367 main 2001 2001 __________P___ -1 -14.5702 86.3367 7 3 194
1884306S07095 1885 43 SI MM NOT_NAMED 1884-11-05 18:00:00 NR -14.7000 86.3000 main 2009 2009 __________O___ -1 -14.7000 86.3000 7 3 198
1884306S07095 1885 43 SI MM NOT_NAMED 1884-11-05 21:00:00 NR -14.8391 86.2449 main 2025 2025 __________P___ -1 -14.8391 86.2449 7 3 204
1884306S07095 1885 43 SI MM NOT_NAMED 1884-11-06 00:00:00 NR -14.9876 86.1728 main 2040 2040 __________P___ -1 -14.9876 86.1728 7 3 206
1884306S07095 1885 43 SI MM NOT_NAMED 1884-11-06 03:00:00 NR -15.1423 86.0893 main 2056 2056 __________P___ -1 -15.1423 86.0893 7 4 208
1884306S07095 1885 43 SI MM NOT_NAMED 1884-11-06 06:00:00 NR -15.3000 86.0000 main 2080 __________O___ -1 -15.3000 86.0000 7 4 210

About IBTrACS Database

This database is a web-friendly format of International Best Track Archive for Climate Stewardship (IBTrACS), a global best track data archive curated by NOAA dating back to 1842.

Updated: 2021-11-26